Time;durP1;ratioP1;P1;durP2;ratioP2;P2;SDS_P1;SDS_P2;PMS_P1;PMS_P2;Temp;Humidity;BMP_temperature;BMP_pressure;BME280_temperature;BME280_humidity;BME280_pressure;Samples;Min_cycle;Max_cycle;Signal;HPM_P1;HPM_P2
2022/05/14 00:01:58;;;;;;;5.80;3.10;;;;;;;14.15;73.06;99145.53;4998381;28;105477;-67
2022/05/14 00:04:28;;;;;;;4.00;2.50;;;;;;;14.34;72.83;99140.47;5014703;28;103661;-68
2022/05/14 00:06:56;;;;;;;3.65;3.05;;;;;;;14.40;72.11;99145.28;4996333;28;102622;-67
2022/05/14 00:09:24;;;;;;;5.13;3.30;;;;;;;13.78;74.60;99147.59;5018383;28;103684;-67
2022/05/14 00:14:37;;;;;;;4.53;3.15;;;;;;;14.27;72.28;99149.88;5017112;28;103217;-67
2022/05/14 00:17:05;;;;;;;7.00;3.17;;;;;;;13.97;73.52;99141.72;5014549;28;102872;-68
2022/05/14 00:19:37;;;;;;;4.07;2.97;;;;;;;14.18;72.54;99139.13;5014643;28;103886;-67
2022/05/14 00:22:05;;;;;;;4.63;3.47;;;;;;;13.97;72.98;99147.03;4992429;28;103242;-67
2022/05/14 00:24:32;;;;;;;3.35;2.90;;;;;;;13.87;74.31;99146.88;5015771;28;103193;-68
2022/05/14 00:27:00;;;;;;;2.70;2.45;;;;;;;14.19;72.74;99141.69;5015290;28;102652;-67
2022/05/14 00:29:30;;;;;;;3.17;2.88;;;;;;;14.27;71.97;99138.41;4998165;28;102923;-67
2022/05/14 00:31:58;;;;;;;6.32;3.88;;;;;;;13.66;73.38;99147.72;4995762;28;104281;-68
2022/05/14 00:34:26;;;;;;;4.70;3.33;;;;;;;13.50;75.57;99148.06;4998851;28;103259;-67
2022/05/14 00:36:56;;;;;;;3.88;2.97;;;;;;;12.67;77.51;99141.13;4998543;28;102719;-67
2022/05/14 00:39:24;;;;;;;5.30;3.30;;;;;;;12.26;79.56;99156.56;5011609;28;103900;-68
2022/05/14 00:41:54;;;;;;;5.03;3.50;;;;;;;12.28;79.98;99142.25;5014949;28;103758;-67
2022/05/14 00:44:22;;;;;;;4.05;3.22;;;;;;;12.66;78.18;99142.09;4997634;28;103544;-68
2022/05/14 00:46:58;;;;;;;4.45;3.08;;;;;;;12.93;77.64;99142.69;5021164;28;102789;-68
2022/05/14 00:49:29;;;;;;;3.78;2.75;;;;;;;13.44;75.56;99151.22;4997026;28;102785;-68
2022/05/14 00:52:01;;;;;;;2.80;2.40;;;;;;;13.72;73.63;99136.63;5015762;28;103702;-68
2022/05/14 00:54:35;;;;;;;4.03;2.78;;;;;;;13.78;73.13;99141.47;5000659;28;103456;-67
2022/05/14 00:57:08;;;;;;;3.00;2.63;;;;;;;13.88;72.68;99147.75;5019700;28;102547;-68
2022/05/14 00:59:36;;;;;;;5.93;3.67;;;;;;;12.75;78.18;99149.38;4998387;28;103893;-67
2022/05/14 01:02:06;;;;;;;3.45;2.88;;;;;;;13.21;76.59;99142.34;4993709;28;103910;-68
2022/05/14 01:04:34;;;;;;;5.15;3.38;;;;;;;13.04;76.78;99140.09;4994776;28;103208;-67
2022/05/14 01:07:07;;;;;;;4.28;3.35;;;;;;;13.11;75.30;99129.88;5019630;28;102584;-68
2022/05/14 01:09:42;;;;;;;5.07;3.30;;;;;;;12.77;78.32;99137.69;4998379;28;104123;-67
2022/05/14 01:12:12;;;;;;;5.88;3.70;;;;;;;12.88;76.68;99126.28;5016300;28;102592;-68
2022/05/14 01:14:40;;;;;;;3.38;2.75;;;;;;;13.30;75.65;99136.31;5001321;28;103211;-68
2022/05/14 01:17:08;;;;;;;5.65;3.63;;;;;;;12.88;76.59;99139.56;5002001;28;102816;-67
2022/05/14 01:19:38;;;;;;;5.75;3.40;;;;;;;13.01;75.78;99135.00;5000415;28;102777;-67
2022/05/14 01:22:22;;;;;;;5.75;3.63;;;;;;;12.86;76.96;99133.50;4990337;28;104172;-67
2022/05/14 01:28:00;;;;;;;4.18;2.95;;;;;;;13.36;73.90;99135.84;5001820;28;102664;-67
2022/05/14 01:30:30;;;;;;;3.55;2.60;;;;;;;13.36;74.01;99145.66;4996705;28;102697;-67
2022/05/14 01:33:08;;;;;;;4.78;3.08;;;;;;;13.23;74.34;99144.88;4999002;28;103227;-67
2022/05/14 01:35:43;;;;;;;4.70;3.00;;;;;;;13.18;74.54;99137.28;4999117;28;103420;-67
2022/05/14 01:38:12;;;;;;;3.87;2.90;;;;;;;13.18;74.32;99139.06;4999115;28;103139;-67
2022/05/14 01:40:42;;;;;;;3.93;3.00;;;;;;;13.03;75.08;99137.53;5001430;28;103647;-67
2022/05/14 01:43:12;;;;;;;4.10;3.58;;;;;;;12.46;77.72;99142.72;4996455;28;103239;-67
2022/05/14 01:45:42;;;;;;;6.22;4.57;;;;;;;11.44;82.47;99146.47;4988870;28;105135;-67
2022/05/14 01:48:10;;;;;;;5.22;4.05;;;;;;;11.41;84.68;99142.22;5011916;28;102747;-67
2022/05/14 01:50:39;;;;;;;6.60;4.10;;;;;;;12.17;80.06;99148.31;4999297;28;104148;-67
2022/05/14 01:53:07;;;;;;;5.93;3.67;;;;;;;12.52;78.24;99142.28;5015524;28;104322;-67
2022/05/14 01:55:34;;;;;;;4.15;3.20;;;;;;;12.78;77.21;99143.84;5000140;28;104089;-67
2022/05/14 01:58:36;;;;;;;4.53;3.57;;;;;;;12.84;76.31;99140.72;5017615;28;102561;-67
2022/05/14 02:00:59;;;;;;;6.00;4.00;;;;;;;12.61;76.92;99134.47;4995892;28;102790;-67
2022/05/14 02:03:27;;;;;;;5.70;3.97;;;;;;;12.33;78.52;99134.81;4999897;28;103285;-67
2022/05/14 02:05:55;;;;;;;3.80;3.40;;;;;;;12.48;77.83;99146.09;5000833;28;103251;-68
2022/05/14 02:08:23;;;;;;;5.30;4.38;;;;;;;11.91;80.79;99136.06;4997416;28;102700;-67
2022/05/14 02:10:51;;;;;;;5.43;4.50;;;;;;;11.80;81.90;99140.44;4997963;28;104142;-68
2022/05/14 02:13:20;;;;;;;6.05;4.38;;;;;;;12.21;80.35;99133.88;4998299;28;104141;-67
2022/05/14 02:15:49;;;;;;;3.30;3.00;;;;;;;12.41;79.63;99139.53;5001807;28;103317;-67
2022/05/14 02:18:22;;;;;;;3.65;3.35;;;;;;;12.58;78.26;99144.44;4997287;28;102648;-67
2022/05/14 02:20:50;;;;;;;4.10;3.70;;;;;;;12.47;77.34;99139.09;5016204;28;103967;-67
2022/05/14 02:23:20;;;;;;;5.60;3.53;;;;;;;12.07;81.23;99149.91;4999154;28;104419;-67
2022/05/14 02:25:48;;;;;;;5.30;3.80;;;;;;;11.96;81.10;99141.03;5000751;28;103224;-67
2022/05/14 02:28:17;;;;;;;3.88;3.47;;;;;;;12.35;79.51;99137.34;5017317;28;102897;-67
2022/05/14 02:30:45;;;;;;;5.73;3.40;;;;;;;12.56;77.02;99138.44;4995978;28;102871;-67
2022/05/14 02:33:14;;;;;;;4.53;3.20;;;;;;;12.74;76.06;99137.09;4999629;28;103962;-67
2022/05/14 02:35:44;;;;;;;5.17;3.17;;;;;;;12.69;76.66;99144.50;4999877;28;104242;-67
2022/05/14 02:38:15;;;;;;;3.40;3.10;;;;;;;12.57;76.74;99140.97;4998385;28;103066;-67
2022/05/14 02:40:43;;;;;;;4.60;3.40;;;;;;;12.72;75.75;99136.31;5017156;28;102588;-67
2022/05/14 02:43:11;;;;;;;3.65;3.00;;;;;;;12.75;75.07;99134.31;4997325;28;104339;-67
2022/05/14 02:45:39;;;;;;;4.75;3.72;;;;;;;12.43;75.83;99149.09;5018264;28;103196;-67
2022/05/14 02:48:10;;;;;;;4.03;3.33;;;;;;;12.48;76.15;99146.94;4998596;28;102627;-67
2022/05/14 02:50:41;;;;;;;3.92;3.22;;;;;;;12.42;77.75;99146.53;4997030;27;104159;-67
2022/05/14 02:53:11;;;;;;;2.65;2.45;;;;;;;12.60;76.48;99139.91;5000554;28;102871;-67
2022/05/14 02:55:39;;;;;;;3.80;3.40;;;;;;;12.61;75.96;99133.63;5015487;28;104238;-67
2022/05/14 02:58:07;;;;;;;4.28;3.40;;;;;;;12.59;75.24;99135.56;5015284;28;102713;-67
2022/05/14 03:00:35;;;;;;;3.22;2.92;;;;;;;12.30;77.46;99142.13;5017259;28;103549;-67
2022/05/14 03:03:03;;;;;;;4.15;3.42;;;;;;;11.80;79.66;99149.22;4998308;28;104470;-67
2022/05/14 03:05:32;;;;;;;5.53;3.75;;;;;;;11.59;80.07;99153.34;4999539;28;103548;-67
2022/05/14 03:08:00;;;;;;;3.40;3.10;;;;;;;11.88;79.41;99143.38;4999328;28;102564;-67
2022/05/14 03:10:29;;;;;;;3.72;3.42;;;;;;;11.97;78.68;99151.53;4996490;28;103598;-68
2022/05/14 03:12:57;;;;;;;5.45;3.80;;;;;;;11.51;80.53;99147.72;4998680;28;105350;-67
2022/05/14 03:15:25;;;;;;;3.83;3.30;;;;;;;11.57;81.28;99152.59;5013077;28;103263;-67
2022/05/14 03:17:55;;;;;;;5.27;3.10;;;;;;;11.71;80.53;99149.00;4998167;28;102909;-68
2022/05/14 03:20:23;;;;;;;3.77;3.10;;;;;;;11.71;79.24;99147.22;5011182;28;102687;-67
2022/05/14 03:22:52;;;;;;;3.93;3.27;;;;;;;11.43;81.33;99147.41;4992610;28;104628;-70
2022/05/14 03:25:19;;;;;;;6.20;3.35;;;;;;;11.02;83.68;99140.50;5013544;28;103205;-69
2022/05/14 03:27:49;;;;;;;5.63;3.70;;;;;;;10.61;85.79;99145.00;4987789;28;103008;-68
2022/05/14 03:30:17;;;;;;;5.38;3.85;;;;;;;10.42;87.89;99147.16;5016995;28;103605;-68
2022/05/14 03:32:46;;;;;;;5.95;3.58;;;;;;;10.58;88.02;99144.38;5014020;28;103576;-68
2022/05/14 03:35:16;;;;;;;5.70;3.75;;;;;;;10.60;86.82;99153.91;5018064;28;103231;-68
2022/05/14 03:37:45;;;;;;;4.17;3.40;;;;;;;10.55;87.81;99150.72;5016231;28;102771;-68
2022/05/14 03:40:14;;;;;;;5.22;3.90;;;;;;;10.72;86.83;99149.63;5018808;28;102922;-68
2022/05/14 03:42:43;;;;;;;4.23;3.20;;;;;;;11.12;86.07;99151.28;5017310;28;103264;-68
2022/05/14 03:45:12;;;;;;;5.15;3.30;;;;;;;11.08;84.81;99155.09;4996379;28;103186;-68
2022/05/14 03:47:41;;;;;;;5.75;3.35;;;;;;;11.03;84.72;99157.22;5013790;27;103015;-68
2022/05/14 03:50:09;;;;;;;2.90;2.53;;;;;;;11.45;84.29;99156.09;4999987;28;102831;-68
2022/05/14 03:52:38;;;;;;;3.70;2.75;;;;;;;11.24;84.66;99154.91;4999917;28;106008;-68
2022/05/14 03:55:06;;;;;;;3.03;2.60;;;;;;;11.61;82.31;99154.09;4998046;28;104253;-68
2022/05/14 03:57:36;;;;;;;3.33;2.50;;;;;;;11.73;81.67;99153.28;5000423;28;102709;-68
2022/05/14 04:00:07;;;;;;;2.40;2.20;;;;;;;11.96;80.10;99147.19;4999032;28;102703;-68
2022/05/14 04:02:41;;;;;;;3.03;2.60;;;;;;;11.83;80.16;99153.47;5016112;28;103331;-68
2022/05/14 04:05:10;;;;;;;5.78;3.65;;;;;;;11.54;81.60;99147.50;4997043;28;106121;-68
2022/05/14 04:07:39;;;;;;;3.80;3.43;;;;;;;11.30;84.91;99159.78;4996550;28;102826;-68
2022/05/14 04:10:09;;;;;;;6.15;3.50;;;;;;;11.54;82.86;99152.78;4998048;28;102699;-73
2022/05/14 04:12:37;;;;;;;5.65;3.40;;;;;;;11.71;82.85;99155.16;4998969;28;104185;-71
2022/05/14 04:15:05;;;;;;;7.03;3.25;;;;;;;11.84;81.57;99153.38;5015319;28;103218;-70
2022/05/14 04:17:33;;;;;;;4.18;3.45;;;;;;;11.86;81.63;99146.16;4998535;28;102716;-70
2022/05/14 04:20:06;;;;;;;4.30;3.00;;;;;;;12.08;80.21;99151.63;5016515;28;103845;-70
2022/05/14 04:22:34;;;;;;;2.90;2.60;;;;;;;12.31;79.39;99149.97;4998183;28;104132;-71
2022/05/14 04:25:02;;;;;;;2.38;2.17;;;;;;;12.44;78.33;99149.91;5001074;28;103302;-70
2022/05/14 04:27:31;;;;;;;3.90;3.28;;;;;;;12.37;78.17;99146.03;5017108;28;102602;-70
2022/05/14 04:29:59;;;;;;;4.13;3.30;;;;;;;12.23;79.97;99152.34;5020783;28;102728;-71
2022/05/14 04:32:27;;;;;;;4.30;3.80;;;;;;;11.87;83.85;99153.16;5000892;28;104538;-70
2022/05/14 04:34:56;;;;;;;3.42;3.13;;;;;;;12.27;82.93;99142.38;5007858;28;103223;-70
2022/05/14 04:37:26;;;;;;;3.10;2.80;;;;;;;12.54;81.10;99150.94;4988589;28;102976;-70
2022/05/14 04:39:55;;;;;;;3.22;2.55;;;;;;;12.73;79.50;99146.00;4984007;28;103001;-70
2022/05/14 04:42:23;;;;;;;2.40;2.20;;;;;;;12.89;78.37;99145.69;4991578;28;105076;-70
2022/05/14 04:44:51;;;;;;;3.27;2.80;;;;;;;12.79;77.21;99156.16;4979440;28;104522;-70
2022/05/14 04:47:19;;;;;;;6.15;3.55;;;;;;;12.49;81.25;99150.44;4996569;28;103007;-69
2022/05/14 04:49:49;;;;;;;4.60;3.70;;;;;;;12.23;84.66;99151.47;4985441;28;104099;-70
2022/05/14 04:52:20;;;;;;;4.07;3.60;;;;;;;12.41;84.54;99155.44;4979807;28;104533;-70
2022/05/14 04:54:50;;;;;;;4.00;3.60;;;;;;;12.69;83.12;99149.81;4979514;28;103269;-69
2022/05/14 04:57:18;;;;;;;3.10;2.83;;;;;;;13.06;80.95;99153.22;4978696;28;102904;-70
2022/05/14 04:59:46;;;;;;;2.72;2.53;;;;;;;13.07;80.47;99157.56;4988172;28;104222;-70
2022/05/14 05:05:01;;;;;;;5.55;4.32;;;;;;;12.99;80.74;99163.47;4993314;27;104365;-70
2022/05/14 05:07:29;;;;;;;5.03;4.20;;;;;;;13.11;81.40;99165.22;5018773;27;102818;-71
2022/05/14 05:09:59;;;;;;;4.85;3.90;;;;;;;13.03;82.70;99159.59;5020094;27;103939;-70
2022/05/14 05:12:26;;;;;;;4.73;4.27;;;;;;;12.95;84.20;99163.78;5027402;27;103602;-74
2022/05/14 05:14:55;;;;;;;4.07;3.73;;;;;;;13.09;84.47;99168.94;5029183;27;103507;-76
2022/05/14 05:17:22;;;;;;;4.13;3.73;;;;;;;13.13;84.58;99170.41;5028668;27;103054;-71
2022/05/14 05:19:50;;;;;;;6.63;4.50;;;;;;;13.32;82.58;99171.56;5030416;27;104590;-72
2022/05/14 05:22:18;;;;;;;4.60;3.93;;;;;;;13.63;81.01;99171.88;5032106;27;104380;-72
2022/05/14 05:24:46;;;;;;;4.70;3.70;;;;;;;13.83;80.26;99176.47;5026476;27;103097;-71
2022/05/14 05:27:16;;;;;;;6.50;4.23;;;;;;;13.71;80.89;99172.09;5029279;27;103292;-73
2022/05/14 05:29:44;;;;;;;8.05;4.47;;;;;;;13.63;81.60;99179.81;5032611;27;102967;-71
2022/05/14 05:32:14;;;;;;;4.38;3.60;;;;;;;13.90;81.07;99172.34;5033246;27;102987;-75
2022/05/14 05:34:42;;;;;;;4.43;3.60;;;;;;;14.17;79.27;99170.19;5030769;27;103203;-72
2022/05/14 05:37:10;;;;;;;4.07;3.60;;;;;;;14.35;77.94;99179.38;5035459;27;103082;-72
2022/05/14 05:39:37;;;;;;;4.85;3.45;;;;;;;14.52;77.53;99178.03;5022600;27;103918;-70
2022/05/14 05:42:06;;;;;;;3.63;3.10;;;;;;;14.67;77.17;99173.28;5022998;27;104047;-71
2022/05/14 05:44:41;;;;;;;5.28;3.20;;;;;;;14.83;76.76;99173.72;5027030;27;103576;-70
2022/05/14 05:47:09;;;;;;;5.15;3.70;;;;;;;14.54;76.84;99175.25;5026684;27;102867;-70
2022/05/14 05:49:41;;;;;;;4.15;3.28;;;;;;;14.65;76.32;99177.88;5029047;27;104138;-70
2022/05/14 05:52:11;;;;;;;5.10;3.77;;;;;;;14.73;76.26;99181.63;5028937;27;103621;-70
2022/05/14 05:57:31;;;;;;;6.18;4.18;;;;;;;14.89;75.89;99178.53;5032062;27;102758;-71
2022/05/14 06:00:00;;;;;;;5.32;3.67;;;;;;;15.04;74.69;99175.44;5029588;27;103967;-70
2022/05/14 06:02:38;;;;;;;3.78;3.10;;;;;;;15.24;74.15;99178.28;5035136;27;103189;-70
2022/05/14 06:05:09;;;;;;;3.78;3.30;;;;;;;15.43;73.43;99173.09;5024855;27;103187;-70
2022/05/14 06:07:39;;;;;;;3.80;3.30;;;;;;;15.36;73.67;99175.41;5027891;27;102661;-70
2022/05/14 06:10:10;;;;;;;4.18;3.25;;;;;;;15.44;73.15;99178.25;5035260;27;103030;-70
2022/05/14 06:12:39;;;;;;;3.97;3.28;;;;;;;15.55;72.43;99180.88;5029405;27;103708;-71
2022/05/14 06:15:15;;;;;;;3.20;2.90;;;;;;;15.80;72.48;99178.81;5031932;27;103390;-71
2022/05/14 06:17:52;;;;;;;3.67;3.28;;;;;;;15.75;72.88;99173.84;5029423;27;102704;-71
2022/05/14 06:20:20;;;;;;;4.78;3.60;;;;;;;15.86;72.24;99175.63;5032252;27;103015;-71
2022/05/14 06:22:48;;;;;;;4.90;3.55;;;;;;;15.98;70.19;99175.38;5031676;27;104249;-71
2022/05/14 06:25:16;;;;;;;4.85;3.50;;;;;;;15.43;73.93;99176.59;5033193;27;103191;-71
2022/05/14 06:27:45;;;;;;;3.42;2.92;;;;;;;16.08;72.89;99172.78;5025014;27;102572;-70
2022/05/14 06:30:15;;;;;;;4.20;2.90;;;;;;;16.31;70.46;99176.09;5029112;27;103786;-70
2022/05/14 06:32:43;;;;;;;4.85;3.25;;;;;;;16.49;69.53;99182.44;5027030;27;103286;-68
2022/05/14 06:35:11;;;;;;;8.05;3.55;;;;;;;16.69;69.34;99170.88;5029692;27;103262;-68
2022/05/14 06:37:40;;;;;;;4.27;3.20;;;;;;;16.73;68.86;99170.44;5032151;27;103037;-68
2022/05/14 06:40:09;;;;;;;4.68;3.30;;;;;;;16.73;69.11;99173.13;5029276;27;103773;-68
2022/05/14 06:42:38;;;;;;;4.90;3.70;;;;;;;16.59;69.93;99170.84;5030633;27;104386;-68
2022/05/14 06:45:07;;;;;;;4.53;3.47;;;;;;;16.69;70.81;99171.72;5030002;27;103243;-69
2022/05/14 06:47:37;;;;;;;4.73;3.30;;;;;;;16.85;69.42;99175.66;5031085;27;102946;-68
2022/05/14 06:50:07;;;;;;;4.53;3.30;;;;;;;17.04;68.12;99167.69;5029347;27;102712;-68
2022/05/14 06:52:35;;;;;;;5.45;3.35;;;;;;;17.26;68.02;99168.22;5027271;27;103157;-68
2022/05/14 06:55:05;;;;;;;3.70;2.97;;;;;;;17.15;69.48;99164.88;5029946;27;103219;-68
2022/05/14 06:57:34;;;;;;;4.05;2.92;;;;;;;17.52;67.34;99163.13;5028735;27;102735;-69
2022/05/14 07:00:03;;;;;;;3.23;2.80;;;;;;;17.80;66.59;99170.28;5035917;27;104310;-69
2022/05/14 07:02:33;;;;;;;3.70;2.73;;;;;;;18.04;65.74;99169.78;5028417;27;104161;-69
2022/05/14 07:07:49;;;;;;;2.85;2.45;;;;;;;18.30;64.20;99184.16;5026281;27;102656;-68
2022/05/14 07:10:26;;;;;;;2.78;2.40;;;;;;;18.70;62.86;99177.66;5029957;27;102797;-69
2022/05/14 07:12:55;;;;;;;4.90;2.42;;;;;;;18.85;63.33;99184.19;5028884;27;103642;-68
2022/05/14 07:15:23;;;;;;;4.72;2.42;;;;;;;18.91;63.04;99179.06;5033349;27;103250;-69
2022/05/14 07:17:51;;;;;;;3.83;2.47;;;;;;;19.11;60.00;99180.59;5032874;27;103032;-68
2022/05/14 07:20:23;;;;;;;5.37;2.87;;;;;;;18.34;62.52;99184.72;5030785;27;102772;-68
2022/05/14 07:22:51;;;;;;;3.42;2.55;;;;;;;18.30;61.11;99183.34;5028314;27;104340;-69
2022/05/14 07:25:20;;;;;;;4.78;2.50;;;;;;;18.83;62.37;99186.16;5028868;27;103399;-69
2022/05/14 07:27:48;;;;;;;3.83;2.20;;;;;;;19.52;59.42;99179.13;5029469;27;102661;-70
2022/05/14 07:30:16;;;;;;;3.57;2.33;;;;;;;19.79;57.11;99188.88;5030512;27;103694;-69
2022/05/14 07:32:47;;;;;;;6.95;2.67;;;;;;;19.40;57.43;99183.06;5036158;27;104075;-71
2022/05/14 07:35:14;;;;;;;5.18;2.50;;;;;;;18.98;59.79;99182.81;5035450;27;103202;-74
2022/05/14 07:37:49;;;;;;;4.53;2.90;;;;;;;18.61;59.74;99187.41;5031509;27;102894;-72
2022/05/14 07:40:23;;;;;;;5.60;2.30;;;;;;;19.05;57.07;99181.22;5024933;27;103684;-72
2022/05/14 07:42:56;;;;;;;5.03;2.42;;;;;;;19.80;54.73;99179.84;5024579;27;104542;-73
2022/05/14 07:45:29;;;;;;;4.10;2.40;;;;;;;19.61;54.77;99185.41;5030584;27;103608;-73
2022/05/14 07:47:59;;;;;;;3.22;2.10;;;;;;;20.04;54.95;99181.84;5029598;27;102676;-69
2022/05/14 07:50:28;;;;;;;3.90;2.20;;;;;;;20.98;52.92;99175.34;5024696;27;102663;-70
2022/05/14 07:53:00;;;;;;;2.78;2.05;;;;;;;20.60;53.42;99182.13;5032155;27;104331;-69
2022/05/14 07:55:28;;;;;;;2.78;1.83;;;;;;;21.47;51.97;99172.75;5033268;27;103738;-70
2022/05/14 07:58:03;;;;;;;5.25;2.35;;;;;;;20.53;51.99;99175.72;5033586;27;102724;-69
2022/05/14 08:00:33;;;;;;;4.97;2.33;;;;;;;19.91;53.73;99179.56;5028474;27;103703;-69
2022/05/14 08:03:02;;;;;;;4.07;1.88;;;;;;;21.08;52.99;99177.94;5035347;27;103910;-74
2022/05/14 08:05:31;;;;;;;3.83;2.13;;;;;;;21.95;50.16;99170.84;5034272;27;103344;-80
2022/05/14 08:08:00;;;;;;;6.07;2.50;;;;;;;21.57;51.71;99173.41;5027962;27;102687;-70
2022/05/14 08:10:28;;;;;;;5.70;2.38;;;;;;;20.90;50.58;99179.84;5034453;27;103698;-70
2022/05/14 08:12:57;;;;;;;4.93;2.10;;;;;;;20.91;52.08;99179.72;5029357;27;103862;-74
2022/05/14 08:15:28;;;;;;;4.20;2.10;;;;;;;21.84;51.09;99167.63;5032044;27;104301;-74
2022/05/14 08:17:56;;;;;;;2.80;1.63;;;;;;;22.71;49.38;99174.81;5027014;27;102949;-70
2022/05/14 08:20:25;;;;;;;3.33;1.90;;;;;;;21.69;48.88;99174.75;5032519;27;103033;-69
2022/05/14 08:25:39;;;;;;;2.83;1.90;;;;;;;23.91;45.20;99169.53;5030980;27;103359;-69
2022/05/14 08:28:07;;;;;;;4.00;1.90;;;;;;;23.27;47.64;99155.56;5028914;27;102823;-70
2022/05/14 08:30:36;;;;;;;4.10;2.10;;;;;;;23.27;46.26;99163.66;5026655;27;104156;-70
2022/05/14 08:33:11;;;;;;;6.38;1.75;;;;;;;24.19;45.31;99160.66;5028785;27;103830;-70
2022/05/14 08:35:42;;;;;;;4.13;1.90;;;;;;;23.99;45.51;99156.81;5025381;27;103174;-70
2022/05/14 08:38:12;;;;;;;2.33;1.40;;;;;;;25.11;45.78;99161.81;5030306;27;102576;-70
2022/05/14 08:40:43;;;;;;;3.43;1.90;;;;;;;23.72;43.21;99156.59;5023365;27;103969;-70
2022/05/14 08:43:16;;;;;;;3.67;1.77;;;;;;;24.69;42.47;99146.34;5031405;27;103577;-70
2022/05/14 08:45:45;;;;;;;3.25;1.67;;;;;;;25.03;41.60;99153.84;5030714;27;103212;-69
2022/05/14 08:48:22;;;;;;;4.70;1.60;;;;;;;25.15;43.17;99151.47;5025992;27;102946;-69
2022/05/14 08:50:55;;;;;;;5.85;2.38;;;;;;;24.08;45.25;99157.56;5030242;27;103818;-69
2022/05/14 08:53:26;;;;;;;6.00;2.37;;;;;;;23.95;46.67;99151.94;5035284;27;104366;-69
2022/05/14 08:56:07;;;;;;;7.40;2.25;;;;;;;24.25;46.09;99137.47;5028400;27;103304;-69
2022/05/14 08:58:47;;;;;;;4.72;1.98;;;;;;;24.24;45.26;99146.59;5021428;27;103026;-69
2022/05/14 09:01:21;;;;;;;4.30;2.03;;;;;;;24.50;45.36;99146.97;5028526;27;102856;-69
2022/05/14 09:03:50;;;;;;;2.45;2.00;;;;;;;24.48;45.61;99148.97;5026647;27;104038;-69
2022/05/14 09:06:18;;;;;;;2.97;1.70;;;;;;;26.06;44.19;99145.16;5028011;27;103203;-71
2022/05/14 09:08:46;;;;;;;4.18;2.03;;;;;;;26.27;43.10;99145.13;5027876;27;102682;-69
2022/05/14 09:11:21;;;;;;;4.28;2.22;;;;;;;23.71;44.67;99146.81;5028464;27;104237;-69
2022/05/14 09:13:57;;;;;;;3.83;2.20;;;;;;;24.91;43.18;99141.84;5028734;27;103276;-69
2022/05/14 09:16:29;;;;;;;4.10;1.90;;;;;;;25.87;41.58;99136.72;5030293;27;102772;-69
2022/05/14 09:18:57;;;;;;;5.72;2.15;;;;;;;24.76;44.21;99141.84;5033034;27;102874;-69
2022/05/14 09:21:30;;;;;;;4.03;1.60;;;;;;;25.60;45.75;99137.53;5031254;27;103180;-69
2022/05/14 09:24:03;;;;;;;3.00;1.80;;;;;;;24.27;42.92;99140.81;5025429;27;104392;-69
2022/05/14 09:26:37;;;;;;;4.00;1.63;;;;;;;25.53;40.80;99133.94;5032266;27;103293;-69
2022/05/14 09:29:14;;;;;;;3.03;1.70;;;;;;;25.01;40.35;99149.66;5034542;27;102959;-69
2022/05/14 09:31:53;;;;;;;4.80;1.50;;;;;;;25.99;39.83;99133.47;5028065;27;104155;-69
2022/05/14 09:34:22;;;;;;;3.25;1.52;;;;;;;26.65;42.87;99135.47;5031023;27;103621;-69
2022/05/14 09:36:51;;;;;;;30.90;2.77;;;;;;;26.58;39.56;99136.50;5034401;27;103243;-72
2022/05/14 09:39:23;;;;;;;4.18;1.60;;;;;;;26.74;41.08;99134.28;5031560;27;102803;-70
2022/05/14 09:41:55;;;;;;;2.13;1.00;;;;;;;26.14;40.70;99136.91;5031841;27;103446;-72
2022/05/14 09:44:27;;;;;;;2.80;1.15;;;;;;;25.51;40.58;99127.06;5035716;27;103285;-72
2022/05/14 09:47:06;;;;;;;3.72;1.60;;;;;;;25.06;39.80;99128.28;5023793;27;103409;-72
2022/05/14 09:49:39;;;;;;;2.15;1.38;;;;;;;26.04;38.58;99126.41;5031985;27;102762;-72
2022/05/14 09:52:09;;;;;;;4.90;1.30;;;;;;;26.68;38.88;99124.25;5027352;27;102633;-72
2022/05/14 09:54:42;;;;;;;3.27;1.40;;;;;;;26.45;38.71;99129.16;5029303;27;104029;-69
2022/05/14 09:57:32;;;;;;;4.20;1.55;;;;;;;25.29;38.88;99127.03;5032855;27;104459;-69
2022/05/14 10:00:10;;;;;;;3.07;1.30;;;;;;;26.69;41.02;99125.09;5027649;27;102970;-70
2022/05/14 10:03:01;;;;;;;3.17;1.30;;;;;;;26.31;39.92;99122.00;5027067;27;102685;-70
2022/05/14 10:05:42;;;;;;;4.15;1.20;;;;;;;26.79;38.58;99118.25;5028888;27;103993;-70
2022/05/14 10:08:20;;;;;;;3.70;1.30;;;;;;;26.20;38.52;99120.69;5031318;27;103232;-70
2022/05/14 10:10:59;;;;;;;3.27;1.30;;;;;;;26.43;40.05;99117.69;5033486;27;103428;-70
2022/05/14 10:13:37;;;;;;;3.85;1.40;;;;;;;25.26;40.30;99116.59;5027524;27;103867;-71
2022/05/14 10:16:11;;;;;;;4.47;1.50;;;;;;;25.55;41.14;99121.06;5029237;27;103170;-70
2022/05/14 10:18:56;;;;;;;3.97;1.30;;;;;;;26.49;40.40;99103.34;5032460;27;103216;-70
2022/05/14 10:21:34;;;;;;;2.47;1.00;;;;;;;27.42;37.69;99116.09;5025699;27;103284;-70
2022/05/14 10:27:11;;;;;;;4.07;1.23;;;;;;;27.48;36.56;99116.09;5034006;27;104180;-70
2022/05/14 10:29:58;;;;;;;4.88;1.23;;;;;;;26.65;40.17;99102.97;5029686;27;104170;-70
2022/05/14 10:32:29;;;;;;;3.58;1.30;;;;;;;25.90;40.44;99109.25;5033133;27;102704;-70
2022/05/14 10:35:05;;;;;;;3.90;1.45;;;;;;;24.92;39.92;99096.75;5026324;27;104026;-70
2022/05/14 10:37:40;;;;;;;3.85;1.38;;;;;;;25.98;40.42;99093.88;5033956;27;104129;-71
2022/05/14 10:40:15;;;;;;;3.67;1.60;;;;;;;23.97;41.39;99101.34;5034636;27;103541;-71
2022/05/14 10:43:01;;;;;;;2.80;1.08;;;;;;;26.02;40.27;99089.75;5034890;27;104018;-71
2022/05/14 10:45:35;;;;;;;3.58;1.30;;;;;;;26.61;37.92;99098.97;5030354;27;102726;-71
2022/05/14 10:48:16;;;;;;;4.50;1.60;;;;;;;25.76;38.30;99091.25;5027550;27;104787;-71
2022/05/14 10:50:47;;;;;;;3.20;1.43;;;;;;;27.44;37.73;99081.47;5029175;27;104359;-71
2022/05/14 10:53:17;;;;;;;4.83;1.50;;;;;;;25.75;38.64;99084.16;5029208;27;102819;-76
2022/05/14 10:55:57;;;;;;;4.40;1.25;;;;;;;25.74;40.49;99081.66;5037607;27;102803;-77
2022/05/14 10:58:39;;;;;;;2.67;1.20;;;;;;;26.26;37.77;99086.56;5036638;27;103248;-73
2022/05/14 11:01:30;;;;;;;2.53;1.20;;;;;;;26.94;36.49;99080.97;5023147;27;103250;-71
2022/05/14 11:04:00;;;;;;;5.00;1.30;;;;;;;27.37;39.87;99080.59;5029790;27;102803;-75
2022/05/14 11:06:32;;;;;;;2.90;1.13;;;;;;;28.01;36.14;99078.88;5031056;27;103570;-75
2022/05/14 11:09:00;;;;;;;5.32;1.38;;;;;;;25.26;38.66;99075.25;5029757;27;105205;-78
2022/05/14 11:11:30;;;;;;;2.72;1.15;;;;;;;26.41;36.30;99084.56;5036713;27;103243;-76
2022/05/14 11:14:01;;;;;;;3.33;1.10;;;;;;;26.14;36.71;99080.03;5032867;27;102794;-76
2022/05/14 11:16:39;;;;;;;2.70;1.10;;;;;;;27.18;36.91;99081.41;5032152;27;103057;-77
2022/05/14 11:19:08;;;;;;;2.47;1.20;;;;;;;26.58;34.95;99075.03;5036995;27;103649;-76
2022/05/14 11:21:40;;;;;;;3.55;1.00;;;;;;;25.41;37.73;99083.25;5037701;27;103040;-81
2022/05/14 11:24:12;;;;;;;3.78;1.30;;;;;;;25.15;37.92;99087.41;5038140;27;102651;-77
2022/05/14 11:26:53;;;;;;;2.17;1.10;;;;;;;25.91;36.74;99078.44;5035169;27;102665;-79
2022/05/14 11:29:25;;;;;;;11.55;10.30;;;;;;;27.21;38.03;99075.56;5036971;27;103896;-77
2022/05/14 11:32:02;;;;;;;10.53;8.27;;;;;;;26.67;36.51;99073.78;5035368;27;103179;-76
2022/05/14 11:34:30;;;;;;;2.85;1.35;;;;;;;25.73;37.56;99075.41;5037032;27;102998;-77
2022/05/14 11:37:00;;;;;;;3.75;1.23;;;;;;;24.70;37.02;99066.97;5030870;27;104371;-80
2022/05/14 11:39:32;;;;;;;3.22;1.20;;;;;;;25.59;35.87;99070.94;5030096;27;104482;-81
2022/05/14 11:42:27;;;;;;;3.53;1.10;;;;;;;24.89;37.45;99075.50;5031728;27;103339;-76
2022/05/14 11:44:59;;;;;;;2.20;1.02;;;;;;;26.61;36.25;99074.59;5026604;27;102652;-79
2022/05/14 11:47:47;;;;;;;3.72;1.48;;;;;;;27.54;33.38;99065.56;5033242;27;102723;-79
2022/05/14 11:50:17;;;;;;;4.18;1.20;;;;;;;25.56;36.15;99068.63;5028096;27;103806;-81
2022/05/14 11:53:02;;;;;;;2.55;1.10;;;;;;;27.17;35.52;99058.06;5035382;27;103232;-82
2022/05/14 11:55:38;;;;;;;3.05;1.30;;;;;;;28.25;33.60;99060.22;5026368;27;102858;-81
2022/05/14 11:58:11;;;;;;;3.20;1.10;;;;;;;25.51;37.04;99065.69;5031547;27;103849;-80
2022/05/14 12:00:41;;;;;;;2.60;1.10;;;;;;;26.28;36.61;99051.97;5032070;27;103894;-82
2022/05/14 12:03:17;;;;;;;3.27;1.70;;;;;;;27.56;34.01;99053.50;5031564;27;103225;-82